sensor_id;sensor_type;location;lat;lon;timestamp;temperature;humidity
43949;DHT22;29429;51.074;13.764;2022-08-19T00:01:58;21.80;99.90
43949;DHT22;29429;51.074;13.764;2022-08-19T00:04:29;21.80;99.90
43949;DHT22;29429;51.074;13.764;2022-08-19T00:06:59;21.80;99.90
43949;DHT22;29429;51.074;13.764;2022-08-19T00:09:26;21.80;99.90
43949;DHT22;29429;51.074;13.764;2022-08-19T00:11:55;21.80;99.90
43949;DHT22;29429;51.074;13.764;2022-08-19T00:14:24;21.80;99.90
43949;DHT22;29429;51.074;13.764;2022-08-19T00:16:52;21.90;99.90
43949;DHT22;29429;51.074;13.764;2022-08-19T00:19:22;21.70;99.90
43949;DHT22;29429;51.074;13.764;2022-08-19T00:21:50;21.80;99.90
43949;DHT22;29429;51.074;13.764;2022-08-19T00:24:18;21.90;99.90
43949;DHT22;29429;51.074;13.764;2022-08-19T00:26:45;21.80;99.90
43949;DHT22;29429;51.074;13.764;2022-08-19T00:29:15;21.80;99.90
43949;DHT22;29429;51.074;13.764;2022-08-19T00:31:45;21.80;99.90
43949;DHT22;29429;51.074;13.764;2022-08-19T00:34:13;21.80;99.90
43949;DHT22;29429;51.074;13.764;2022-08-19T00:36:41;21.80;99.90
43949;DHT22;29429;51.074;13.764;2022-08-19T00:39:09;21.80;99.90
43949;DHT22;29429;51.074;13.764;2022-08-19T00:41:37;21.80;99.90
43949;DHT22;29429;51.074;13.764;2022-08-19T00:44:13;21.80;99.90
43949;DHT22;29429;51.074;13.764;2022-08-19T00:46:46;21.80;99.90
43949;DHT22;29429;51.074;13.764;2022-08-19T00:49:43;21.80;99.90
43949;DHT22;29429;51.074;13.764;2022-08-19T00:52:24;21.80;99.90
43949;DHT22;29429;51.074;13.764;2022-08-19T00:54:56;21.80;99.90
43949;DHT22;29429;51.074;13.764;2022-08-19T00:57:31;21.90;99.90
43949;DHT22;29429;51.074;13.764;2022-08-19T01:00:04;21.70;99.90
43949;DHT22;29429;51.074;13.764;2022-08-19T01:02:33;21.70;99.90
43949;DHT22;29429;51.074;13.764;2022-08-19T01:05:03;21.60;99.90
43949;DHT22;29429;51.074;13.764;2022-08-19T01:07:34;21.60;99.90
43949;DHT22;29429;51.074;13.764;2022-08-19T01:10:05;21.50;99.90
43949;DHT22;29429;51.074;13.764;2022-08-19T01:12:35;21.50;99.90
43949;DHT22;29429;51.074;13.764;2022-08-19T01:15:07;21.50;99.90
43949;DHT22;29429;51.074;13.764;2022-08-19T01:17:38;21.50;99.90
43949;DHT22;29429;51.074;13.764;2022-08-19T01:20:11;21.40;99.90
43949;DHT22;29429;51.074;13.764;2022-08-19T01:22:50;21.40;99.90
43949;DHT22;29429;51.074;13.764;2022-08-19T01:25:22;21.40;99.90
43949;DHT22;29429;51.074;13.764;2022-08-19T01:27:54;21.50;99.90
43949;DHT22;29429;51.074;13.764;2022-08-19T01:30:31;21.50;99.90
43949;DHT22;29429;51.074;13.764;2022-08-19T01:32:59;21.50;99.90
43949;DHT22;29429;51.074;13.764;2022-08-19T01:35:29;21.50;99.90
43949;DHT22;29429;51.074;13.764;2022-08-19T01:38:01;21.50;99.90
43949;DHT22;29429;51.074;13.764;2022-08-19T01:40:37;21.50;99.90
43949;DHT22;29429;51.074;13.764;2022-08-19T01:43:06;21.50;99.90
43949;DHT22;29429;51.074;13.764;2022-08-19T01:45:35;21.50;99.90
43949;DHT22;29429;51.074;13.764;2022-08-19T01:48:03;21.50;99.90
43949;DHT22;29429;51.074;13.764;2022-08-19T01:50:32;21.50;99.90
43949;DHT22;29429;51.074;13.764;2022-08-19T01:53:02;21.40;99.90
43949;DHT22;29429;51.074;13.764;2022-08-19T01:55:36;21.40;99.90
43949;DHT22;29429;51.074;13.764;2022-08-19T01:58:13;21.40;99.90
43949;DHT22;29429;51.074;13.764;2022-08-19T02:00:43;21.40;99.90
43949;DHT22;29429;51.074;13.764;2022-08-19T02:03:11;21.30;99.90
43949;DHT22;29429;51.074;13.764;2022-08-19T02:05:40;21.20;99.90
43949;DHT22;29429;51.074;13.764;2022-08-19T02:08:07;21.20;99.90
43949;DHT22;29429;51.074;13.764;2022-08-19T02:10:39;21.30;99.90
43949;DHT22;29429;51.074;13.764;2022-08-19T02:13:09;21.30;99.90
43949;DHT22;29429;51.074;13.764;2022-08-19T02:15:37;21.30;99.90
43949;DHT22;29429;51.074;13.764;2022-08-19T02:18:05;21.30;99.90
43949;DHT22;29429;51.074;13.764;2022-08-19T02:20:32;21.40;99.90
43949;DHT22;29429;51.074;13.764;2022-08-19T02:22:58;21.30;99.90
43949;DHT22;29429;51.074;13.764;2022-08-19T02:25:27;21.30;99.90
43949;DHT22;29429;51.074;13.764;2022-08-19T02:27:54;21.30;99.90
43949;DHT22;29429;51.074;13.764;2022-08-19T02:30:21;21.30;99.90
43949;DHT22;29429;51.074;13.764;2022-08-19T02:32:49;21.30;99.90
43949;DHT22;29429;51.074;13.764;2022-08-19T02:35:16;21.40;99.90
43949;DHT22;29429;51.074;13.764;2022-08-19T02:37:44;21.20;99.90
43949;DHT22;29429;51.074;13.764;2022-08-19T02:40:30;21.30;99.90
43949;DHT22;29429;51.074;13.764;2022-08-19T02:43:05;21.30;99.90
43949;DHT22;29429;51.074;13.764;2022-08-19T02:45:35;21.30;99.90
43949;DHT22;29429;51.074;13.764;2022-08-19T02:48:07;21.30;99.90
43949;DHT22;29429;51.074;13.764;2022-08-19T02:50:49;21.30;99.90
43949;DHT22;29429;51.074;13.764;2022-08-19T02:53:24;21.40;99.90
43949;DHT22;29429;51.074;13.764;2022-08-19T02:55:53;21.30;99.90
43949;DHT22;29429;51.074;13.764;2022-08-19T02:58:21;21.40;99.90
43949;DHT22;29429;51.074;13.764;2022-08-19T03:00:53;21.40;99.90
43949;DHT22;29429;51.074;13.764;2022-08-19T03:03:22;21.40;99.90
43949;DHT22;29429;51.074;13.764;2022-08-19T03:05:49;21.40;99.90
43949;DHT22;29429;51.074;13.764;2022-08-19T03:08:23;21.40;99.90
43949;DHT22;29429;51.074;13.764;2022-08-19T03:10:52;21.40;99.90
43949;DHT22;29429;51.074;13.764;2022-08-19T03:13:20;21.40;99.90
43949;DHT22;29429;51.074;13.764;2022-08-19T03:15:47;21.30;99.90
43949;DHT22;29429;51.074;13.764;2022-08-19T03:18:15;21.50;99.90
43949;DHT22;29429;51.074;13.764;2022-08-19T03:20:51;21.40;99.90
43949;DHT22;29429;51.074;13.764;2022-08-19T03:23:22;21.40;99.90
43949;DHT22;29429;51.074;13.764;2022-08-19T03:25:52;21.30;99.90
43949;DHT22;29429;51.074;13.764;2022-08-19T03:28:44;21.30;99.90
43949;DHT22;29429;51.074;13.764;2022-08-19T03:31:25;21.30;99.90
43949;DHT22;29429;51.074;13.764;2022-08-19T03:34:16;21.20;99.90
43949;DHT22;29429;51.074;13.764;2022-08-19T03:36:45;21.20;99.90
43949;DHT22;29429;51.074;13.764;2022-08-19T03:39:13;21.20;99.90
43949;DHT22;29429;51.074;13.764;2022-08-19T03:41:43;21.20;99.90
43949;DHT22;29429;51.074;13.764;2022-08-19T03:44:16;21.20;99.90
43949;DHT22;29429;51.074;13.764;2022-08-19T03:46:50;21.20;99.90
43949;DHT22;29429;51.074;13.764;2022-08-19T03:49:26;21.20;99.90
43949;DHT22;29429;51.074;13.764;2022-08-19T03:51:57;21.30;99.90
43949;DHT22;29429;51.074;13.764;2022-08-19T03:54:27;21.30;99.90
43949;DHT22;29429;51.074;13.764;2022-08-19T03:56:55;21.20;99.90
43949;DHT22;29429;51.074;13.764;2022-08-19T03:59:30;21.20;99.90
43949;DHT22;29429;51.074;13.764;2022-08-19T04:02:01;21.20;99.90
43949;DHT22;29429;51.074;13.764;2022-08-19T04:04:32;21.30;99.90
43949;DHT22;29429;51.074;13.764;2022-08-19T04:06:59;21.20;99.90
43949;DHT22;29429;51.074;13.764;2022-08-19T04:09:26;21.30;99.90
43949;DHT22;29429;51.074;13.764;2022-08-19T04:11:55;21.30;99.90
43949;DHT22;29429;51.074;13.764;2022-08-19T04:14:27;21.30;99.90
43949;DHT22;29429;51.074;13.764;2022-08-19T04:16:58;21.30;99.90
43949;DHT22;29429;51.074;13.764;2022-08-19T04:19:28;21.30;99.90
43949;DHT22;29429;51.074;13.764;2022-08-19T04:21:57;21.30;99.90
43949;DHT22;29429;51.074;13.764;2022-08-19T04:24:25;21.30;99.90
43949;DHT22;29429;51.074;13.764;2022-08-19T04:26:52;21.30;99.90
43949;DHT22;29429;51.074;13.764;2022-08-19T04:29:22;21.20;99.90
43949;DHT22;29429;51.074;13.764;2022-08-19T04:31:53;21.20;99.90
43949;DHT22;29429;51.074;13.764;2022-08-19T04:34:27;21.10;99.90
43949;DHT22;29429;51.074;13.764;2022-08-19T04:36:57;21.20;99.90
43949;DHT22;29429;51.074;13.764;2022-08-19T04:39:28;21.20;99.90
43949;DHT22;29429;51.074;13.764;2022-08-19T04:42:17;21.20;99.90
43949;DHT22;29429;51.074;13.764;2022-08-19T04:45:07;21.20;99.90
43949;DHT22;29429;51.074;13.764;2022-08-19T04:47:40;21.20;99.90
43949;DHT22;29429;51.074;13.764;2022-08-19T04:50:24;21.20;99.90
43949;DHT22;29429;51.074;13.764;2022-08-19T04:52:52;21.20;99.90
43949;DHT22;29429;51.074;13.764;2022-08-19T04:55:20;21.20;99.90
43949;DHT22;29429;51.074;13.764;2022-08-19T04:57:46;21.20;99.90
43949;DHT22;29429;51.074;13.764;2022-08-19T05:00:14;21.20;99.90
43949;DHT22;29429;51.074;13.764;2022-08-19T05:02:41;21.20;99.90
43949;DHT22;29429;51.074;13.764;2022-08-19T05:05:08;21.20;99.90
43949;DHT22;29429;51.074;13.764;2022-08-19T05:07:36;21.20;99.90
43949;DHT22;29429;51.074;13.764;2022-08-19T05:10:05;21.20;99.90
43949;DHT22;29429;51.074;13.764;2022-08-19T05:12:33;21.20;99.90
43949;DHT22;29429;51.074;13.764;2022-08-19T05:15:01;21.30;99.90
43949;DHT22;29429;51.074;13.764;2022-08-19T05:17:29;21.40;99.90
43949;DHT22;29429;51.074;13.764;2022-08-19T05:20:04;21.30;99.90
43949;DHT22;29429;51.074;13.764;2022-08-19T05:22:51;21.30;99.90
43949;DHT22;29429;51.074;13.764;2022-08-19T05:25:20;21.30;99.90
43949;DHT22;29429;51.074;13.764;2022-08-19T05:27:48;21.30;99.90
43949;DHT22;29429;51.074;13.764;2022-08-19T05:30:16;21.40;99.90
43949;DHT22;29429;51.074;13.764;2022-08-19T05:32:43;21.40;99.90
43949;DHT22;29429;51.074;13.764;2022-08-19T05:35:11;21.40;99.90
43949;DHT22;29429;51.074;13.764;2022-08-19T05:37:38;21.30;99.90
43949;DHT22;29429;51.074;13.764;2022-08-19T05:40:09;21.30;99.90
43949;DHT22;29429;51.074;13.764;2022-08-19T05:42:37;21.30;99.90
43949;DHT22;29429;51.074;13.764;2022-08-19T05:45:04;21.20;99.90
43949;DHT22;29429;51.074;13.764;2022-08-19T05:47:33;21.40;99.90
43949;DHT22;29429;51.074;13.764;2022-08-19T05:50:06;21.40;99.90
43949;DHT22;29429;51.074;13.764;2022-08-19T05:52:33;21.40;99.90
43949;DHT22;29429;51.074;13.764;2022-08-19T05:55:03;21.40;99.90
43949;DHT22;29429;51.074;13.764;2022-08-19T05:57:30;21.40;99.90
43949;DHT22;29429;51.074;13.764;2022-08-19T05:59:57;21.30;99.90
43949;DHT22;29429;51.074;13.764;2022-08-19T06:02:28;21.30;99.90
43949;DHT22;29429;51.074;13.764;2022-08-19T06:04:57;21.20;99.90
43949;DHT22;29429;51.074;13.764;2022-08-19T06:07:24;21.20;99.90
43949;DHT22;29429;51.074;13.764;2022-08-19T06:09:52;21.20;99.90
43949;DHT22;29429;51.074;13.764;2022-08-19T06:12:29;21.00;99.90
43949;DHT22;29429;51.074;13.764;2022-08-19T06:15:01;21.30;99.90
43949;DHT22;29429;51.074;13.764;2022-08-19T06:17:30;21.20;99.90
43949;DHT22;29429;51.074;13.764;2022-08-19T06:19:58;21.30;99.90
43949;DHT22;29429;51.074;13.764;2022-08-19T06:22:26;21.30;99.90
43949;DHT22;29429;51.074;13.764;2022-08-19T06:24:55;21.30;99.90
43949;DHT22;29429;51.074;13.764;2022-08-19T06:27:22;21.30;99.90
43949;DHT22;29429;51.074;13.764;2022-08-19T06:29:49;21.30;99.90
43949;DHT22;29429;51.074;13.764;2022-08-19T06:32:17;21.30;99.90
43949;DHT22;29429;51.074;13.764;2022-08-19T06:34:45;21.30;99.90
43949;DHT22;29429;51.074;13.764;2022-08-19T06:37:13;21.30;99.90
43949;DHT22;29429;51.074;13.764;2022-08-19T06:39:43;21.20;99.90
43949;DHT22;29429;51.074;13.764;2022-08-19T06:42:12;21.30;99.90
43949;DHT22;29429;51.074;13.764;2022-08-19T06:44:45;21.30;99.90
43949;DHT22;29429;51.074;13.764;2022-08-19T06:47:20;21.30;99.90
43949;DHT22;29429;51.074;13.764;2022-08-19T06:49:54;21.30;99.90
43949;DHT22;29429;51.074;13.764;2022-08-19T06:52:33;21.30;99.90
43949;DHT22;29429;51.074;13.764;2022-08-19T06:55:04;21.30;99.90
43949;DHT22;29429;51.074;13.764;2022-08-19T06:57:33;21.40;99.90
43949;DHT22;29429;51.074;13.764;2022-08-19T07:00:00;21.40;99.90
43949;DHT22;29429;51.074;13.764;2022-08-19T07:02:28;21.30;99.90
43949;DHT22;29429;51.074;13.764;2022-08-19T07:04:55;21.30;99.90
43949;DHT22;29429;51.074;13.764;2022-08-19T07:07:24;21.30;99.90
43949;DHT22;29429;51.074;13.764;2022-08-19T07:09:52;21.30;99.90
43949;DHT22;29429;51.074;13.764;2022-08-19T07:12:29;21.20;99.90
43949;DHT22;29429;51.074;13.764;2022-08-19T07:15:06;21.10;99.90
43949;DHT22;29429;51.074;13.764;2022-08-19T07:17:35;21.20;99.90
43949;DHT22;29429;51.074;13.764;2022-08-19T07:20:06;21.00;99.90
43949;DHT22;29429;51.074;13.764;2022-08-19T07:22:37;21.10;99.90
43949;DHT22;29429;51.074;13.764;2022-08-19T07:25:07;21.00;99.90
43949;DHT22;29429;51.074;13.764;2022-08-19T07:27:35;21.00;99.90
43949;DHT22;29429;51.074;13.764;2022-08-19T07:30:06;21.00;99.90
43949;DHT22;29429;51.074;13.764;2022-08-19T07:32:38;21.00;99.90
43949;DHT22;29429;51.074;13.764;2022-08-19T07:35:06;21.00;99.90
43949;DHT22;29429;51.074;13.764;2022-08-19T07:37:35;21.00;99.90
43949;DHT22;29429;51.074;13.764;2022-08-19T07:40:05;21.00;99.90
43949;DHT22;29429;51.074;13.764;2022-08-19T07:42:33;21.00;99.90
43949;DHT22;29429;51.074;13.764;2022-08-19T07:45:00;21.00;99.90
43949;DHT22;29429;51.074;13.764;2022-08-19T07:47:27;21.00;99.90
43949;DHT22;29429;51.074;13.764;2022-08-19T07:50:15;21.00;99.90
43949;DHT22;29429;51.074;13.764;2022-08-19T07:52:44;21.00;99.90
43949;DHT22;29429;51.074;13.764;2022-08-19T07:55:17;21.00;99.90
43949;DHT22;29429;51.074;13.764;2022-08-19T07:58:07;20.90;99.90
43949;DHT22;29429;51.074;13.764;2022-08-19T08:00:34;21.00;99.90
43949;DHT22;29429;51.074;13.764;2022-08-19T08:03:02;21.00;99.90
43949;DHT22;29429;51.074;13.764;2022-08-19T08:05:29;21.00;99.90
43949;DHT22;29429;51.074;13.764;2022-08-19T08:08:14;21.10;99.90
43949;DHT22;29429;51.074;13.764;2022-08-19T08:11:00;21.10;99.90
43949;DHT22;29429;51.074;13.764;2022-08-19T08:13:27;21.10;99.90
43949;DHT22;29429;51.074;13.764;2022-08-19T08:15:55;21.00;99.90
43949;DHT22;29429;51.074;13.764;2022-08-19T08:18:24;21.00;99.90
43949;DHT22;29429;51.074;13.764;2022-08-19T08:20:56;21.00;99.90
43949;DHT22;29429;51.074;13.764;2022-08-19T08:23:25;21.00;99.90
43949;DHT22;29429;51.074;13.764;2022-08-19T08:25:55;21.00;99.90
43949;DHT22;29429;51.074;13.764;2022-08-19T08:28:25;21.00;99.90
43949;DHT22;29429;51.074;13.764;2022-08-19T08:30:55;20.90;99.90
43949;DHT22;29429;51.074;13.764;2022-08-19T08:33:24;21.00;99.90
43949;DHT22;29429;51.074;13.764;2022-08-19T08:36:10;21.00;99.90
43949;DHT22;29429;51.074;13.764;2022-08-19T08:38:38;21.10;99.90
43949;DHT22;29429;51.074;13.764;2022-08-19T08:41:44;21.10;99.90
43949;DHT22;29429;51.074;13.764;2022-08-19T08:47:32;21.20;99.90
43949;DHT22;29429;51.074;13.764;2022-08-19T08:50:08;21.30;99.90
43949;DHT22;29429;51.074;13.764;2022-08-19T08:52:49;21.30;99.90
43949;DHT22;29429;51.074;13.764;2022-08-19T08:55:22;21.40;99.90
43949;DHT22;29429;51.074;13.764;2022-08-19T08:58:27;21.40;99.90
43949;DHT22;29429;51.074;13.764;2022-08-19T09:00:58;21.50;99.90
43949;DHT22;29429;51.074;13.764;2022-08-19T09:03:27;21.60;99.90
43949;DHT22;29429;51.074;13.764;2022-08-19T09:09:04;21.90;99.90
43949;DHT22;29429;51.074;13.764;2022-08-19T09:17:21;22.20;99.90
43949;DHT22;29429;51.074;13.764;2022-08-19T09:20:21;22.10;99.90
43949;DHT22;29429;51.074;13.764;2022-08-19T09:22:51;22.20;99.90
43949;DHT22;29429;51.074;13.764;2022-08-19T09:25:20;22.20;99.90
43949;DHT22;29429;51.074;13.764;2022-08-19T09:27:55;22.40;99.90
43949;DHT22;29429;51.074;13.764;2022-08-19T09:30:31;22.40;99.90
43949;DHT22;29429;51.074;13.764;2022-08-19T09:33:01;22.70;99.90
43949;DHT22;29429;51.074;13.764;2022-08-19T09:35:29;22.60;99.90
43949;DHT22;29429;51.074;13.764;2022-08-19T09:37:57;22.70;99.90
43949;DHT22;29429;51.074;13.764;2022-08-19T09:40:27;22.60;99.90
43949;DHT22;29429;51.074;13.764;2022-08-19T09:42:56;22.60;99.90
43949;DHT22;29429;51.074;13.764;2022-08-19T09:45:26;22.60;99.90
43949;DHT22;29429;51.074;13.764;2022-08-19T09:47:53;22.60;99.90
43949;DHT22;29429;51.074;13.764;2022-08-19T09:50:22;22.50;99.90
43949;DHT22;29429;51.074;13.764;2022-08-19T09:52:51;22.40;99.90
43949;DHT22;29429;51.074;13.764;2022-08-19T09:55:24;22.40;99.90
43949;DHT22;29429;51.074;13.764;2022-08-19T09:57:59;22.50;99.90
43949;DHT22;29429;51.074;13.764;2022-08-19T10:00:26;22.60;99.90
43949;DHT22;29429;51.074;13.764;2022-08-19T10:02:53;22.80;99.90
43949;DHT22;29429;51.074;13.764;2022-08-19T10:05:21;22.90;99.90
43949;DHT22;29429;51.074;13.764;2022-08-19T10:08:09;23.00;99.90
43949;DHT22;29429;51.074;13.764;2022-08-19T10:10:41;23.00;99.90
43949;DHT22;29429;51.074;13.764;2022-08-19T10:13:14;23.00;99.90
43949;DHT22;29429;51.074;13.764;2022-08-19T10:15:43;23.00;99.90
43949;DHT22;29429;51.074;13.764;2022-08-19T10:18:15;22.90;99.90
43949;DHT22;29429;51.074;13.764;2022-08-19T10:20:48;22.90;99.90
43949;DHT22;29429;51.074;13.764;2022-08-19T10:23:19;23.10;99.90
43949;DHT22;29429;51.074;13.764;2022-08-19T10:25:47;23.30;99.90
43949;DHT22;29429;51.074;13.764;2022-08-19T10:28:14;23.60;99.90
43949;DHT22;29429;51.074;13.764;2022-08-19T10:30:45;23.70;99.90
43949;DHT22;29429;51.074;13.764;2022-08-19T10:33:12;23.80;99.90
43949;DHT22;29429;51.074;13.764;2022-08-19T10:35:39;23.90;99.90
43949;DHT22;29429;51.074;13.764;2022-08-19T10:38:23;24.00;99.90
43949;DHT22;29429;51.074;13.764;2022-08-19T10:41:07;23.90;99.90
43949;DHT22;29429;51.074;13.764;2022-08-19T10:43:54;23.90;99.90
43949;DHT22;29429;51.074;13.764;2022-08-19T10:46:30;23.90;99.90
43949;DHT22;29429;51.074;13.764;2022-08-19T10:49:00;24.00;99.90
43949;DHT22;29429;51.074;13.764;2022-08-19T10:51:28;24.30;99.90
43949;DHT22;29429;51.074;13.764;2022-08-19T10:54:15;24.60;99.90
43949;DHT22;29429;51.074;13.764;2022-08-19T10:56:56;24.90;99.90
43949;DHT22;29429;51.074;13.764;2022-08-19T10:59:26;25.10;99.90
43949;DHT22;29429;51.074;13.764;2022-08-19T11:02:03;25.40;99.90
43949;DHT22;29429;51.074;13.764;2022-08-19T11:04:31;25.50;99.90
43949;DHT22;29429;51.074;13.764;2022-08-19T11:07:01;25.70;99.90
43949;DHT22;29429;51.074;13.764;2022-08-19T11:09:29;25.90;99.90
43949;DHT22;29429;51.074;13.764;2022-08-19T11:12:00;26.10;99.90
43949;DHT22;29429;51.074;13.764;2022-08-19T11:14:55;26.20;99.90
43949;DHT22;29429;51.074;13.764;2022-08-19T11:17:23;26.10;99.90
43949;DHT22;29429;51.074;13.764;2022-08-19T11:19:50;26.00;99.90
43949;DHT22;29429;51.074;13.764;2022-08-19T11:22:17;25.80;99.90
43949;DHT22;29429;51.074;13.764;2022-08-19T11:24:45;25.60;99.90
43949;DHT22;29429;51.074;13.764;2022-08-19T11:27:12;25.30;99.90
43949;DHT22;29429;51.074;13.764;2022-08-19T11:29:38;25.00;99.90
43949;DHT22;29429;51.074;13.764;2022-08-19T11:32:09;24.70;99.90
43949;DHT22;29429;51.074;13.764;2022-08-19T11:34:37;24.50;99.90
43949;DHT22;29429;51.074;13.764;2022-08-19T11:37:04;24.40;99.90
43949;DHT22;29429;51.074;13.764;2022-08-19T11:39:33;24.30;99.90
43949;DHT22;29429;51.074;13.764;2022-08-19T11:42:01;24.20;99.90
43949;DHT22;29429;51.074;13.764;2022-08-19T11:44:29;24.30;99.90
43949;DHT22;29429;51.074;13.764;2022-08-19T11:46:57;24.40;99.90
43949;DHT22;29429;51.074;13.764;2022-08-19T11:49:34;24.60;99.90
43949;DHT22;29429;51.074;13.764;2022-08-19T11:52:02;24.80;99.90
43949;DHT22;29429;51.074;13.764;2022-08-19T11:54:29;24.90;99.90
43949;DHT22;29429;51.074;13.764;2022-08-19T11:56:57;25.10;99.90
43949;DHT22;29429;51.074;13.764;2022-08-19T11:59:24;25.20;99.90
43949;DHT22;29429;51.074;13.764;2022-08-19T12:01:53;25.20;99.90
43949;DHT22;29429;51.074;13.764;2022-08-19T12:04:20;25.00;99.90
43949;DHT22;29429;51.074;13.764;2022-08-19T12:06:47;24.90;99.90
43949;DHT22;29429;51.074;13.764;2022-08-19T12:09:14;24.80;99.90
43949;DHT22;29429;51.074;13.764;2022-08-19T12:11:42;24.70;99.90
43949;DHT22;29429;51.074;13.764;2022-08-19T12:14:10;24.50;99.90
43949;DHT22;29429;51.074;13.764;2022-08-19T12:16:44;24.20;99.90
43949;DHT22;29429;51.074;13.764;2022-08-19T12:19:18;24.00;99.90
43949;DHT22;29429;51.074;13.764;2022-08-19T12:21:48;23.90;99.90
43949;DHT22;29429;51.074;13.764;2022-08-19T12:24:16;23.70;99.90
43949;DHT22;29429;51.074;13.764;2022-08-19T12:26:50;23.60;99.90
43949;DHT22;29429;51.074;13.764;2022-08-19T12:29:20;23.50;99.90
43949;DHT22;29429;51.074;13.764;2022-08-19T12:31:50;23.40;99.90
43949;DHT22;29429;51.074;13.764;2022-08-19T12:34:17;23.50;99.90
43949;DHT22;29429;51.074;13.764;2022-08-19T12:36:46;23.70;99.90
43949;DHT22;29429;51.074;13.764;2022-08-19T12:39:15;23.90;99.90
43949;DHT22;29429;51.074;13.764;2022-08-19T12:41:42;24.00;99.90
43949;DHT22;29429;51.074;13.764;2022-08-19T12:44:21;24.10;99.90
43949;DHT22;29429;51.074;13.764;2022-08-19T12:46:57;24.20;99.90
43949;DHT22;29429;51.074;13.764;2022-08-19T12:49:28;24.20;99.90
43949;DHT22;29429;51.074;13.764;2022-08-19T12:52:15;24.10;99.90
43949;DHT22;29429;51.074;13.764;2022-08-19T12:54:49;23.90;99.90
43949;DHT22;29429;51.074;13.764;2022-08-19T12:57:24;23.80;99.90
43949;DHT22;29429;51.074;13.764;2022-08-19T13:00:00;23.70;99.90
43949;DHT22;29429;51.074;13.764;2022-08-19T13:02:35;23.70;99.90
43949;DHT22;29429;51.074;13.764;2022-08-19T13:05:06;23.80;99.90
43949;DHT22;29429;51.074;13.764;2022-08-19T13:07:36;23.80;99.90
43949;DHT22;29429;51.074;13.764;2022-08-19T13:10:06;23.90;99.90
43949;DHT22;29429;51.074;13.764;2022-08-19T13:12:35;23.90;99.90
43949;DHT22;29429;51.074;13.764;2022-08-19T13:15:02;24.10;99.90
43949;DHT22;29429;51.074;13.764;2022-08-19T13:17:37;24.10;99.90
43949;DHT22;29429;51.074;13.764;2022-08-19T13:20:06;24.10;99.90
43949;DHT22;29429;51.074;13.764;2022-08-19T13:22:35;24.20;99.90
43949;DHT22;29429;51.074;13.764;2022-08-19T13:25:05;24.10;99.90
43949;DHT22;29429;51.074;13.764;2022-08-19T13:27:33;24.10;99.90
43949;DHT22;29429;51.074;13.764;2022-08-19T13:30:02;24.10;99.90
43949;DHT22;29429;51.074;13.764;2022-08-19T13:32:48;24.00;99.90
43949;DHT22;29429;51.074;13.764;2022-08-19T13:35:34;23.90;99.90
43949;DHT22;29429;51.074;13.764;2022-08-19T13:38:01;23.70;99.90
43949;DHT22;29429;51.074;13.764;2022-08-19T13:40:32;23.50;99.90
43949;DHT22;29429;51.074;13.764;2022-08-19T13:43:05;23.30;99.90
43949;DHT22;29429;51.074;13.764;2022-08-19T13:45:50;23.20;99.90
43949;DHT22;29429;51.074;13.764;2022-08-19T13:48:24;23.20;99.90
43949;DHT22;29429;51.074;13.764;2022-08-19T13:50:53;23.10;99.90
43949;DHT22;29429;51.074;13.764;2022-08-19T13:53:21;23.10;99.90
43949;DHT22;29429;51.074;13.764;2022-08-19T13:55:48;23.10;99.90
43949;DHT22;29429;51.074;13.764;2022-08-19T13:58:16;23.00;99.90
43949;DHT22;29429;51.074;13.764;2022-08-19T14:00:45;22.90;99.90
43949;DHT22;29429;51.074;13.764;2022-08-19T14:03:13;22.80;99.90
43949;DHT22;29429;51.074;13.764;2022-08-19T14:05:40;22.80;99.90
43949;DHT22;29429;51.074;13.764;2022-08-19T14:08:07;22.80;99.90
43949;DHT22;29429;51.074;13.764;2022-08-19T14:10:35;22.80;99.90
43949;DHT22;29429;51.074;13.764;2022-08-19T14:13:03;22.70;99.90
43949;DHT22;29429;51.074;13.764;2022-08-19T14:15:31;22.60;99.90
43949;DHT22;29429;51.074;13.764;2022-08-19T14:17:58;22.60;99.90
43949;DHT22;29429;51.074;13.764;2022-08-19T14:20:25;22.60;99.90
43949;DHT22;29429;51.074;13.764;2022-08-19T14:22:53;22.60;99.90
43949;DHT22;29429;51.074;13.764;2022-08-19T14:25:26;22.60;99.90
43949;DHT22;29429;51.074;13.764;2022-08-19T14:27:55;22.50;99.90
43949;DHT22;29429;51.074;13.764;2022-08-19T14:30:31;22.60;99.90
43949;DHT22;29429;51.074;13.764;2022-08-19T14:33:00;22.60;99.90
43949;DHT22;29429;51.074;13.764;2022-08-19T14:35:30;22.60;99.90
43949;DHT22;29429;51.074;13.764;2022-08-19T14:38:03;22.50;99.90
43949;DHT22;29429;51.074;13.764;2022-08-19T14:40:31;22.50;99.90
43949;DHT22;29429;51.074;13.764;2022-08-19T14:43:01;22.50;99.90
43949;DHT22;29429;51.074;13.764;2022-08-19T14:45:35;22.50;99.90
43949;DHT22;29429;51.074;13.764;2022-08-19T14:48:07;22.60;99.90
43949;DHT22;29429;51.074;13.764;2022-08-19T14:50:45;22.60;99.90
43949;DHT22;29429;51.074;13.764;2022-08-19T14:53:12;22.60;99.90
43949;DHT22;29429;51.074;13.764;2022-08-19T14:55:46;22.50;99.90
43949;DHT22;29429;51.074;13.764;2022-08-19T14:58:13;22.50;99.90
43949;DHT22;29429;51.074;13.764;2022-08-19T15:00:59;22.50;99.90
43949;DHT22;29429;51.074;13.764;2022-08-19T15:03:27;22.40;99.90
43949;DHT22;29429;51.074;13.764;2022-08-19T15:05:55;22.40;99.90
43949;DHT22;29429;51.074;13.764;2022-08-19T15:08:24;22.40;99.90
43949;DHT22;29429;51.074;13.764;2022-08-19T15:10:52;22.40;99.90
43949;DHT22;29429;51.074;13.764;2022-08-19T15:13:19;22.30;99.90
43949;DHT22;29429;51.074;13.764;2022-08-19T15:15:47;22.30;99.90
43949;DHT22;29429;51.074;13.764;2022-08-19T15:18:14;22.30;99.90
43949;DHT22;29429;51.074;13.764;2022-08-19T15:20:43;22.40;99.90
43949;DHT22;29429;51.074;13.764;2022-08-19T15:23:13;22.30;99.90
43949;DHT22;29429;51.074;13.764;2022-08-19T15:25:41;22.30;99.90
43949;DHT22;29429;51.074;13.764;2022-08-19T15:28:10;22.30;99.90
43949;DHT22;29429;51.074;13.764;2022-08-19T15:30:39;22.30;99.90
43949;DHT22;29429;51.074;13.764;2022-08-19T15:33:06;22.30;99.90
43949;DHT22;29429;51.074;13.764;2022-08-19T15:35:33;22.30;99.90
43949;DHT22;29429;51.074;13.764;2022-08-19T15:38:00;22.30;99.90
43949;DHT22;29429;51.074;13.764;2022-08-19T15:40:27;22.30;99.90
43949;DHT22;29429;51.074;13.764;2022-08-19T15:42:55;22.40;99.90
43949;DHT22;29429;51.074;13.764;2022-08-19T15:45:24;22.40;99.90
43949;DHT22;29429;51.074;13.764;2022-08-19T15:47:59;22.30;99.90
43949;DHT22;29429;51.074;13.764;2022-08-19T15:50:27;22.30;99.90
43949;DHT22;29429;51.074;13.764;2022-08-19T15:53:00;22.30;99.90